MDT,Max TemperatureF,Mean TemperatureF,Min TemperatureF,Max Dew PointF,MeanDew PointF,Min DewpointF,Max Humidity, Mean Humidity, Min Humidity, Max Sea Level PressureIn, Mean Sea Level PressureIn, Min Sea Level PressureIn, Max VisibilityMiles, Mean VisibilityMiles, Min VisibilityMiles, Max Wind SpeedMPH, Mean Wind SpeedMPH, Max Gust SpeedMPH,PrecipitationIn, CloudCover, Events, WindDirDegrees
2013-4-1,50,42,33,34,21,9,100,52,20,30.18,30.09,30.00,10,10,2,22,7,38,0.01,4,Snow,169
2013-4-2,42,34,26,30,20,5,100,63,23,30.09,30.02,29.97,10,8,0,12,4,20,0.00,4,Fog-Snow-Thunderstorm,151
2013-4-3,44,34,23,32,24,19,100,71,37,30.31,30.19,30.08,10,10,4,13,4,20,0.20,3,Snow,146
2013-4-4,53,42,30,23,19,14,69,44,24,30.35,30.29,30.23,10,10,10,10,4,17,0.00,0,,157
2013-4-5,50,44,39,32,21,14,75,42,26,30.25,30.13,30.03,10,10,7,20,5,34,0.00,6,Rain-Thunderstorm,185
2013-4-6,50,41,32,32,22,9,87,52,20,30.13,30.09,30.03,10,10,10,16,4,26,0.00,3,Rain,237
2013-4-7,48,40,32,32,26,18,100,61,34,30.09,30.00,29.89,10,10,5,17,3,31,0.00,5,Snow,194
2013-4-8,42,36,30,34,25,12,100,65,29,29.88,29.64,29.47,10,7,0,28,5,44,0.01,4,Snow,130
2013-4-9,33,26,19,28,25,19,100,88,56,29.85,29.61,29.49,10,6,1,20,8,23,0.12,7,Snow,250
2013-4-10,32,23,14,19,15,10,100,76,59,30.01,29.92,29.84,10,8,1,21,7,30,0.00,4,Snow,255
2013-4-11,37,29,21,30,23,12,81,71,60,30.00,29.97,29.93,10,10,10,13,4,20,0.00,6,Snow,244
2013-4-12,46,37,28,27,21,14,86,57,29,30.07,30.01,29.97,10,10,7,13,4,18,0.00,4,Snow,176
2013-4-13,48,39,30,23,17,10,64,42,23,30.06,29.90,29.71,10,10,10,26,9,39,0.00,3,,185
2013-4-14,44,37,30,34,24,14,100,61,33,29.84,29.77,29.72,10,8,0,23,9,45,0.20,5,Rain-Snow,256
2013-4-15,50,44,37,32,24,14,81,50,24,29.76,29.72,29.68,10,10,10,28,11,46,0.00,5,Rain,198
2013-4-16,51,44,37,21,15,9,48,33,18,29.80,29.73,29.67,10,7,2,33,16,54,0.00,3,,180
2013-4-17,41,28,14,28,18,7,93,72,36,29.97,29.79,29.70,10,6,0,25,14,46,0.00,7,Snow,233
2013-4-18,26,18,10,12,8,3,92,68,43,30.25,30.07,29.96,10,8,1,16,8,21,0.01,6,Snow,288
2013-4-19,37,26,14,25,12,7,80,58,38,30.25,30.20,30.11,10,10,5,12,4,17,0.00,2,Snow,193
2013-4-20,35,32,28,32,30,27,100,92,80,30.19,30.09,30.04,10,7,0,14,2,21,0.05,7,Snow,171
2013-4-21,48,37,26,30,19,9,93,51,20,30.24,30.19,30.16,10,10,10,15,5,24,0.03,2,,212
2013-4-22,53,45,37,28,20,14,70,39,22,30.16,30.05,29.95,10,10,7,24,7,38,0.00,6,,252
2013-4-23,37,32,26,28,20,9,100,66,38,30.16,30.05,29.97,10,8,1,20,7,25,0.00,4,Snow,270
2013-4-24,44,35,26,12,7,0,51,32,18,30.24,30.19,30.11,10,10,10,15,5,24,0.00,2,,192
2013-4-25,53,43,33,25,13,9,53,30,19,30.22,30.15,30.06,10,10,10,22,7,34,0.00,,,214
2013-4-26,51,42,32,27,19,12,75,44,22,30.40,30.28,30.17,10,10,10,13,3,20,0.00,,,118
2013-4-27,55,44,32,19,15,9,60,34,18,30.41,30.36,30.30,10,10,10,7,4,,0.00,,,83
2013-4-28,60,46,33,19,15,9,52,30,13,30.34,30.25,30.17,10,10,10,14,6,23,0.00,,,165
2013-4-29,62,50,37,23,19,12,52,30,14,30.20,30.11,30.01,10,10,10,17,6,26,0.00,,,196
2013-4-30,62,53,44,21,15,9,37,22,12,30.02,29.98,29.92,10,10,10,26,8,44,0.00,,,189